createdAt,value
2022-10-22T00:12:57.348Z,99986.65
2022-10-22T00:28:00.749Z,99985.68
2022-10-22T00:43:03.747Z,99981.96
2022-10-22T00:58:07.161Z,99968.27
2022-10-22T01:13:25.872Z,99952.20
2022-10-22T01:28:58.328Z,99949.13
2022-10-22T01:44:01.292Z,99918.73
2022-10-22T01:59:13.734Z,99919.75
2022-10-22T02:14:19.467Z,99917.20
2022-10-22T02:29:28.966Z,99915.05
2022-10-22T02:44:31.991Z,99915.16
2022-10-22T02:59:35.449Z,99909.11
2022-10-22T03:14:38.622Z,99908.58
2022-10-22T03:29:42.208Z,99903.79
2022-10-22T03:44:45.512Z,99909.83
2022-10-22T03:59:49.215Z,99910.27
2022-10-22T04:14:52.367Z,99903.34
2022-10-22T04:29:55.253Z,99920.11
2022-10-22T04:44:58.342Z,99898.02
2022-10-22T05:00:01.794Z,99876.58
2022-10-22T05:15:05.455Z,99898.92
2022-10-22T05:30:08.738Z,99874.61
2022-10-22T05:45:12.464Z,99876.95
2022-10-22T06:00:16.735Z,99894.93
2022-10-22T06:15:20.675Z,99907.92
2022-10-22T06:30:24.209Z,99924.85
2022-10-22T06:45:27.516Z,99937.58
2022-10-22T07:00:30.557Z,99929.34
2022-10-22T07:15:33.765Z,99929.06
2022-10-22T07:30:38.152Z,99934.10
2022-10-22T07:45:41.977Z,99947.31
2022-10-22T08:00:45.920Z,99960.23
2022-10-22T08:15:50.509Z,99983.95
2022-10-22T08:30:56.611Z,99987.10
2022-10-22T08:46:12.255Z,99992.92
2022-10-22T09:01:21.124Z,99980.23
2022-10-22T09:16:46.538Z,99980.11
2022-10-22T09:31:50.775Z,99986.57
2022-10-22T09:46:53.990Z,99970.78
2022-10-22T10:02:20.004Z,99970.09
2022-10-22T10:17:48.850Z,99974.19
2022-10-22T10:33:22.629Z,99976.03
2022-10-22T10:48:55.551Z,99985.42
2022-10-22T11:04:33.449Z,99988.24
2022-10-22T11:19:51.502Z,99973.91
2022-10-22T11:34:59.939Z,99974.29
2022-10-22T11:50:18.450Z,99968.09
2022-10-22T12:05:24.335Z,99970.20
2022-10-22T12:20:28.949Z,99961.69
2022-10-22T12:35:43.383Z,99957.09
2022-10-22T12:50:51.142Z,99960.86
2022-10-22T13:05:54.800Z,99963.16
2022-10-22T13:21:03.940Z,99970.16
2022-10-22T13:36:13.098Z,99960.42
2022-10-22T13:51:21.181Z,99950.04
2022-10-22T14:06:28.790Z,99943.73
2022-10-22T14:21:36.826Z,99944.30
2022-10-22T14:36:40.099Z,99949.01
2022-10-22T14:51:43.193Z,99951.60
2022-10-22T15:06:46.689Z,99960.38
2022-10-22T15:21:50.534Z,99961.89
2022-10-22T15:36:56.150Z,99980.52
2022-10-22T15:51:59.108Z,99991.86
2022-10-22T16:07:02.404Z,99997.84
2022-10-22T16:22:06.149Z,100007.04
2022-10-22T16:37:10.627Z,100012.05
2022-10-22T16:52:14.349Z,100021.79
2022-10-22T17:07:17.725Z,100038.47
2022-10-22T17:22:21.424Z,100045.52
2022-10-22T17:37:24.821Z,100052.33
2022-10-22T17:52:28.366Z,100051.90
2022-10-22T18:07:31.549Z,100050.55
2022-10-22T18:22:36.782Z,100058.45
2022-10-22T18:37:40.432Z,100059.59
2022-10-22T18:52:44.006Z,100061.98
2022-10-22T19:07:47.567Z,100072.83
2022-10-22T19:22:51.200Z,100088.92
2022-10-22T19:37:54.649Z,100099.27
2022-10-22T19:52:57.808Z,100119.62
2022-10-22T20:08:01.129Z,100145.35
2022-10-22T20:23:04.545Z,100158.97
2022-10-22T20:38:12.373Z,100176.08
2022-10-22T20:53:16.926Z,100179.21
2022-10-22T21:08:20.167Z,100192.91
2022-10-22T21:23:23.650Z,100199.52
2022-10-22T21:38:26.832Z,100201.63
2022-10-22T21:53:29.939Z,100208.33
2022-10-22T22:08:33.494Z,100225.50
2022-10-22T22:23:43.848Z,100236.22
2022-10-22T22:38:46.887Z,100251.60
2022-10-22T22:53:50.161Z,100263.46
2022-10-22T23:08:54.330Z,100267.54
2022-10-22T23:24:00.202Z,100277.10
2022-10-22T23:39:10.046Z,100279.19
2022-10-22T23:54:15.484Z,100281.34
